Startpagina
METAR-TAF:

METAR-TAF

Vliegvelden :

Gibraltar Airport

Gibraltar, Gibraltar

breedte: 36-09N, lengte: 005-21W, hoogte: 5 m

Actueel weer

Dit bericht is 25 minuten geleden gemaakt, om 20:50 UTC
Wind 13 kt uit het westzuidwesten
Temperatuur 25°C
Vochtigheid 41%
Druk 1012 hPa
Zicht 10 km of meer

METAR: LXGB 212050Z AUTO 25013KT 9999 // NCD 25/11 Q1012

Tijdstip: 23:15 (21:15 UTC)

Verwachting

Dit bericht is 4 uur en het 31 minuten geleden gemaakt, om 16:44 UTC
Verwachting geldig van 21 om 18 UTC tot 21 om 22 UTC
Wind 15 kt uit het zuidzuidwesten
Zicht 10 km of meer
Weinig wolken op 2000 ft
Wijzigt naar
van 21 om 18 UTC tot 21 om 20 UTC
Wind 8 kt uit het westzuidwesten

TAF: LXGB 211644Z 2118/2122 20015KT 9999 FEW020 520001 BECMG 2118/2120 25008KT 50////

Waarnemingen en weersverwachtingen van meer dan 4000 vliegvelden (METAR en TAF).

De beschikbare stations zijn de gele en rode punten op de kaart.

Ga met uw muis naar het station om de naam te zien.

Klik dan om waarnemingen en weersverwachtingen te zien.

kaart wijzigen: klik op de groene knoppen met een zwart kruis om in te zoomen, op de groene knop met een streepje om uit te zoomen of op de groene pijlen voor aangrenzende kaarten.


METAR-TAF: